Time;durP1;ratioP1;P1;durP2;ratioP2;P2;SDS_P1;SDS_P2;PMS_P1;PMS_P2;Temp;Humidity;BMP_temperature;BMP_pressure;BME280_temperature;BME280_humidity;BME280_pressure;Samples;Min_cycle;Max_cycle;Signal;HPM_P1;HPM_P2
2023/08/04 00:00:56;;;;;;;23.70;7.50;;;;;;;15.36;100.00;100893.03;5051003;28;20040;-71
2023/08/04 00:03:21;;;;;;;20.75;7.70;;;;;;;15.47;100.00;100900.22;5049146;28;20049;-71
2023/08/04 00:05:47;;;;;;;19.10;7.07;;;;;;;15.53;100.00;100894.31;5048829;28;20068;-71
2023/08/04 00:08:12;;;;;;;19.33;7.03;;;;;;;15.52;100.00;100903.38;5080332;28;20037;-70
2023/08/04 00:10:38;;;;;;;13.45;6.97;;;;;;;15.46;100.00;100902.03;5047403;28;20037;-71
2023/08/04 00:13:03;;;;;;;26.92;7.03;;;;;;;15.42;100.00;100907.81;5049194;28;20742;-70
2023/08/04 00:15:30;;;;;;;26.40;7.55;;;;;;;15.44;100.00;100906.69;5048565;28;20106;-71
2023/08/04 00:17:56;;;;;;;21.80;7.38;;;;;;;15.34;100.00;100912.94;5046830;28;20071;-70
2023/08/04 00:20:21;;;;;;;14.88;5.72;;;;;;;15.38;100.00;100911.72;5047767;28;21079;-71
2023/08/04 00:22:47;;;;;;;19.40;6.72;;;;;;;15.40;100.00;100917.81;5048037;28;20041;-71
2023/08/04 00:25:13;;;;;;;19.15;6.28;;;;;;;15.36;100.00;100910.97;5049435;28;20113;-71
2023/08/04 00:27:39;;;;;;;11.60;6.07;;;;;;;15.35;100.00;100915.50;5048244;28;20033;-71
2023/08/04 00:30:06;;;;;;;16.98;6.78;;;;;;;15.30;100.00;100915.03;5043535;28;20371;-71
2023/08/04 00:32:31;;;;;;;24.85;6.88;;;;;;;15.26;100.00;100922.50;5047532;28;20040;-71
2023/08/04 00:34:57;;;;;;;19.88;6.47;;;;;;;15.20;100.00;100922.97;5056528;28;20203;-71
2023/08/04 00:37:23;;;;;;;15.35;6.93;;;;;;;15.09;100.00;100922.16;5047696;28;20051;-71
2023/08/04 00:39:49;;;;;;;12.13;6.90;;;;;;;15.01;100.00;100933.53;5042192;28;20108;-71
2023/08/04 00:42:15;;;;;;;17.45;7.78;;;;;;;15.03;100.00;100934.25;5029685;28;20048;-71
2023/08/04 00:44:40;;;;;;;17.30;7.38;;;;;;;15.21;100.00;100927.41;5047890;28;20041;-71
2023/08/04 00:47:06;;;;;;;18.73;7.68;;;;;;;15.23;100.00;100928.09;5048396;28;20037;-71
2023/08/04 00:49:32;;;;;;;16.23;7.28;;;;;;;15.32;100.00;100931.88;5042385;28;20136;-71
2023/08/04 00:52:00;;;;;;;23.38;8.38;;;;;;;15.41;100.00;100935.63;5042705;28;20036;-71
2023/08/04 00:54:25;;;;;;;22.15;7.90;;;;;;;15.59;100.00;100938.66;5045089;28;20548;-71
2023/08/04 00:56:54;;;;;;;16.48;7.85;;;;;;;15.72;100.00;100934.84;5047337;28;20028;-71
2023/08/04 00:59:20;;;;;;;19.85;7.80;;;;;;;15.76;100.00;100939.00;5043610;28;20065;-71
2023/08/04 01:01:47;;;;;;;15.48;7.38;;;;;;;15.81;100.00;100943.97;5047526;28;21073;-71
2023/08/04 01:04:13;;;;;;;19.70;7.25;;;;;;;15.82;100.00;100937.63;5046868;28;20052;-70
2023/08/04 01:07:04;;;;;;;22.20;8.30;;;;;;;15.92;100.00;100943.09;5039675;28;20470;-71
2023/08/04 01:09:39;;;;;;;20.23;8.35;;;;;;;15.76;100.00;100944.38;5041332;28;20240;-71
2023/08/04 01:12:24;;;;;;;17.63;7.53;;;;;;;15.89;100.00;100951.41;5046840;28;20071;-71
2023/08/04 01:15:09;;;;;;;;;;;;;;;15.90;100.00;100948.56;5049075;28;20037;-71
2023/08/04 01:17:35;;;;;;;19.33;7.55;;;;;;;15.87;100.00;100938.09;5046509;28;20003;-71
2023/08/04 01:20:03;;;;;;;22.10;7.25;;;;;;;15.82;100.00;100943.00;5048759;28;20063;-71
2023/08/04 01:22:28;;;;;;;27.40;8.68;;;;;;;15.65;100.00;100946.22;5050142;28;20838;-71
2023/08/04 01:24:55;;;;;;;24.02;8.27;;;;;;;15.54;100.00;100945.25;5049713;28;20048;-71
2023/08/04 01:27:30;;;;;;;19.73;8.65;;;;;;;15.48;100.00;100951.13;5049100;28;20037;-70
2023/08/04 01:29:58;;;;;;;18.58;8.10;;;;;;;15.39;100.00;100953.72;5027597;28;20080;-71
2023/08/04 01:32:23;;;;;;;20.45;8.98;;;;;;;15.38;100.00;100952.88;5051059;28;20039;-71
2023/08/04 01:34:49;;;;;;;18.40;8.05;;;;;;;15.33;100.00;100957.78;5051581;28;20044;-70
2023/08/04 01:37:15;;;;;;;30.83;8.70;;;;;;;15.34;100.00;100969.38;5048360;28;20767;-71
2023/08/04 01:39:41;;;;;;;23.63;8.35;;;;;;;15.39;100.00;100959.09;5042193;28;20033;-71
2023/08/04 01:42:07;;;;;;;25.85;8.75;;;;;;;15.39;100.00;100961.78;5051117;28;20107;-71
2023/08/04 01:44:33;;;;;;;23.80;8.15;;;;;;;15.53;100.00;100969.56;5082038;27;20505;-71
2023/08/04 01:46:59;;;;;;;22.92;7.90;;;;;;;15.59;100.00;100969.06;5049267;28;20541;-71
2023/08/04 01:49:25;;;;;;;23.05;8.73;;;;;;;15.70;100.00;100966.38;5049209;28;20064;-71
2023/08/04 01:51:51;;;;;;;21.02;8.35;;;;;;;15.68;100.00;100962.13;5050247;28;20593;-71
2023/08/04 01:54:16;;;;;;;18.95;7.97;;;;;;;15.71;100.00;100960.03;5048209;28;20037;-71
2023/08/04 01:56:42;;;;;;;17.67;7.60;;;;;;;15.84;100.00;100965.22;5044548;28;20033;-70
2023/08/04 01:59:07;;;;;;;25.83;8.40;;;;;;;15.90;100.00;100964.72;5052180;28;20785;-71
2023/08/04 02:01:33;;;;;;;22.35;7.35;;;;;;;15.78;100.00;100973.81;5049537;28;20037;-71
2023/08/04 02:03:58;;;;;;;20.83;8.45;;;;;;;15.93;100.00;100977.06;5048668;28;20414;-71
2023/08/04 02:06:24;;;;;;;18.55;7.20;;;;;;;15.88;100.00;100968.53;5045694;28;20069;-71
2023/08/04 02:08:49;;;;;;;28.10;8.23;;;;;;;15.86;100.00;100975.84;5045938;28;20088;-71
2023/08/04 02:11:15;;;;;;;25.98;7.22;;;;;;;15.77;100.00;100981.03;5049680;28;20430;-71
2023/08/04 02:13:40;;;;;;;28.35;8.70;;;;;;;15.78;100.00;100977.34;5052888;28;20068;-71
2023/08/04 02:16:06;;;;;;;23.63;8.13;;;;;;;15.63;100.00;100984.00;5053748;28;20492;-71
2023/08/04 02:18:32;;;;;;;19.38;7.93;;;;;;;15.72;100.00;100987.78;5052560;28;20029;-71
2023/08/04 02:20:59;;;;;;;21.20;8.55;;;;;;;15.61;100.00;100993.97;5054014;28;20315;-71
2023/08/04 02:23:24;;;;;;;20.70;8.07;;;;;;;15.59;100.00;101000.47;5048412;28;20522;-71
2023/08/04 02:25:50;;;;;;;21.90;8.35;;;;;;;15.49;100.00;100995.84;5048355;28;20098;-71
2023/08/04 02:28:15;;;;;;;23.33;8.02;;;;;;;15.36;100.00;101005.00;5049609;28;20034;-71
2023/08/04 02:30:41;;;;;;;22.08;7.75;;;;;;;15.37;100.00;101006.75;5048110;28;20524;-71
2023/08/04 02:33:06;;;;;;;24.15;7.97;;;;;;;15.37;100.00;101014.81;5045749;28;20811;-71
2023/08/04 02:35:32;;;;;;;27.92;8.35;;;;;;;15.41;100.00;101010.88;5049949;28;20387;-70
2023/08/04 02:37:58;;;;;;;23.65;7.85;;;;;;;15.39;100.00;101013.69;5049502;28;20041;-71
2023/08/04 02:40:23;;;;;;;28.88;8.48;;;;;;;15.31;100.00;101009.91;5051760;28;20064;-71
2023/08/04 02:42:49;;;;;;;24.67;8.18;;;;;;;15.37;100.00;101021.03;5051306;28;20037;-71
2023/08/04 02:45:14;;;;;;;25.50;9.15;;;;;;;15.49;100.00;101022.72;5052001;28;20094;-71
2023/08/04 02:47:40;;;;;;;21.95;8.85;;;;;;;15.43;100.00;101025.91;5053316;28;20033;-71
2023/08/04 02:50:06;;;;;;;21.73;8.35;;;;;;;15.55;100.00;101026.75;5048118;28;20038;-71
2023/08/04 02:52:32;;;;;;;18.05;8.52;;;;;;;15.57;100.00;101027.50;5053021;28;20092;-71
2023/08/04 02:54:58;;;;;;;16.58;7.50;;;;;;;15.69;100.00;101022.97;5067418;28;20029;-71
2023/08/04 02:57:30;;;;;;;25.75;8.40;;;;;;;15.78;100.00;101017.69;5061029;28;20059;-71
2023/08/04 02:59:57;;;;;;;21.50;7.75;;;;;;;15.73;100.00;101017.22;5051373;28;20032;-71
2023/08/04 03:02:22;;;;;;;21.05;8.82;;;;;;;15.68;100.00;101022.13;5056491;28;20033;-71
2023/08/04 03:04:48;;;;;;;21.83;8.35;;;;;;;15.68;100.00;101021.25;5056130;28;20117;-71
2023/08/04 03:07:13;;;;;;;25.20;9.55;;;;;;;15.54;100.00;101022.34;5047086;28;20699;-71
2023/08/04 03:09:39;;;;;;;23.35;9.40;;;;;;;15.56;100.00;101028.44;5054774;28;20032;-71
2023/08/04 03:12:05;;;;;;;25.38;9.38;;;;;;;15.54;100.00;101030.41;5056551;28;20033;-72
2023/08/04 03:14:31;;;;;;;27.42;9.65;;;;;;;15.55;100.00;101032.13;5055346;28;20029;-71
2023/08/04 03:16:56;;;;;;;25.70;9.82;;;;;;;15.61;100.00;101031.59;5057328;28;20387;-70
2023/08/04 03:19:22;;;;;;;26.40;9.50;;;;;;;15.65;100.00;101034.94;5059743;28;20272;-71
2023/08/04 03:21:47;;;;;;;23.38;10.00;;;;;;;15.62;100.00;101036.03;5056688;28;20044;-71
2023/08/04 03:24:13;;;;;;;24.85;9.15;;;;;;;15.69;100.00;101037.25;5059314;28;20150;-70
2023/08/04 03:26:38;;;;;;;29.65;10.32;;;;;;;15.61;100.00;101038.81;5052937;28;20728;-70
2023/08/04 03:29:04;;;;;;;27.38;10.32;;;;;;;15.69;100.00;101039.09;5057039;28;20403;-71
2023/08/04 03:31:29;;;;;;;27.23;10.13;;;;;;;15.66;100.00;101040.22;5052131;28;20469;-71
2023/08/04 03:33:55;;;;;;;27.42;10.23;;;;;;;15.67;100.00;101038.38;5055947;28;20101;-71
2023/08/04 03:36:20;;;;;;;23.48;10.73;;;;;;;15.68;100.00;101046.31;5055322;28;20056;-71
2023/08/04 03:38:46;;;;;;;33.28;10.88;;;;;;;15.71;100.00;101035.31;5047926;28;20033;-71
2023/08/04 03:41:11;;;;;;;22.63;9.40;;;;;;;15.71;100.00;101038.00;5045410;28;20033;-71
2023/08/04 03:43:37;;;;;;;30.40;10.60;;;;;;;15.73;100.00;101041.41;5049473;28;20045;-71
2023/08/04 03:46:03;;;;;;;21.45;9.55;;;;;;;15.71;100.00;101043.38;5048032;28;20044;-71
2023/08/04 03:48:28;;;;;;;25.52;11.20;;;;;;;15.75;100.00;101044.81;5049586;28;20041;-71
2023/08/04 03:50:54;;;;;;;31.13;10.88;;;;;;;15.62;100.00;101043.25;5044054;28;20037;-71
2023/08/04 03:53:19;;;;;;;27.88;12.10;;;;;;;15.52;100.00;101046.69;5049571;28;20395;-71
2023/08/04 03:55:45;;;;;;;24.92;10.13;;;;;;;15.58;100.00;101049.84;5048944;28;20097;-71
2023/08/04 03:58:10;;;;;;;29.00;10.98;;;;;;;15.67;100.00;101052.69;5043292;28;20072;-71
2023/08/04 04:00:36;;;;;;;23.17;10.75;;;;;;;15.55;100.00;101046.41;5048310;28;20064;-71
2023/08/04 04:03:01;;;;;;;25.00;12.00;;;;;;;15.68;100.00;101053.53;5048078;28;20052;-71
2023/08/04 04:05:27;;;;;;;28.75;12.40;;;;;;;15.72;100.00;101055.84;5048295;28;20050;-71
2023/08/04 04:07:52;;;;;;;28.02;12.27;;;;;;;15.63;100.00;101055.69;5046937;28;20117;-71
2023/08/04 04:10:18;;;;;;;28.25;11.57;;;;;;;15.72;100.00;101060.38;5048940;28;20035;-71
2023/08/04 04:12:43;;;;;;;30.90;12.02;;;;;;;15.71;100.00;101064.00;5048639;28;20041;-71
2023/08/04 04:15:09;;;;;;;45.03;13.13;;;;;;;15.65;100.00;101059.13;5049304;28;20098;-71
2023/08/04 04:17:35;;;;;;;28.48;11.98;;;;;;;15.69;100.00;101056.09;5048912;28;20143;-71
2023/08/04 04:20:01;;;;;;;31.10;12.73;;;;;;;15.70;100.00;101063.16;5054032;28;20033;-71
2023/08/04 04:22:27;;;;;;;26.70;12.50;;;;;;;15.77;100.00;101061.69;5048036;28;20037;-71
2023/08/04 04:24:52;;;;;;;33.50;12.38;;;;;;;15.77;100.00;101064.38;5040545;28;20052;-71
2023/08/04 04:27:18;;;;;;;30.20;11.88;;;;;;;15.82;100.00;101073.91;5047430;28;20033;-71
2023/08/04 04:29:44;;;;;;;29.08;12.77;;;;;;;15.89;100.00;101075.97;5044430;28;20707;-71
2023/08/04 04:32:09;;;;;;;29.77;11.77;;;;;;;15.90;100.00;101066.91;5042562;28;20036;-71
2023/08/04 04:34:35;;;;;;;28.05;12.95;;;;;;;15.91;100.00;101067.75;5045562;28;21856;-71
2023/08/04 04:37:00;;;;;;;35.78;12.70;;;;;;;15.92;100.00;101072.19;5047957;28;20103;-71
2023/08/04 04:39:26;;;;;;;28.15;12.73;;;;;;;15.92;100.00;101080.25;5048006;28;20036;-71
2023/08/04 04:41:52;;;;;;;31.88;13.27;;;;;;;15.96;100.00;101079.00;5064005;28;20037;-71
2023/08/04 04:44:17;;;;;;;27.20;12.02;;;;;;;16.05;100.00;101081.78;5046101;28;20079;-70
2023/08/04 04:46:43;;;;;;;31.60;13.35;;;;;;;16.24;100.00;101088.34;5048558;28;20036;-71
2023/08/04 04:49:08;;;;;;;31.67;12.50;;;;;;;16.23;100.00;101076.72;5048194;28;20084;-70
2023/08/04 04:51:34;;;;;;;28.67;11.15;;;;;;;16.59;100.00;101082.69;5048627;28;20612;-71
2023/08/04 04:53:59;;;;;;;30.08;13.20;;;;;;;16.73;100.00;101079.72;5044594;28;20880;-71
2023/08/04 04:56:25;;;;;;;27.58;11.60;;;;;;;17.03;100.00;101064.59;5042196;28;20044;-71
2023/08/04 04:58:50;;;;;;;31.83;12.13;;;;;;;17.18;100.00;101060.53;5045355;28;20037;-71
2023/08/04 05:01:16;;;;;;;25.98;11.32;;;;;;;17.32;100.00;101065.59;5039471;28;20033;-71
2023/08/04 05:03:41;;;;;;;33.08;12.43;;;;;;;17.22;100.00;101064.69;5043964;28;20057;-71
2023/08/04 05:06:08;;;;;;;28.50;12.05;;;;;;;17.16;100.00;101067.91;5061154;28;20055;-71
2023/08/04 05:08:34;;;;;;;30.58;11.43;;;;;;;17.01;100.00;101082.69;5045805;28;20033;-71
2023/08/04 05:10:59;;;;;;;28.10;11.60;;;;;;;17.04;100.00;101068.97;5045350;28;20485;-71
2023/08/04 05:13:25;;;;;;;28.60;12.40;;;;;;;17.01;100.00;101083.56;5043201;28;20804;-71
2023/08/04 05:15:50;;;;;;;31.70;12.23;;;;;;;17.02;100.00;101082.59;5042188;28;20049;-71
2023/08/04 05:18:16;;;;;;;28.27;11.95;;;;;;;17.23;100.00;101079.88;5045598;28;20041;-71
2023/08/04 05:20:47;;;;;;;27.85;12.38;;;;;;;17.46;100.00;101083.22;5046494;28;20033;-71
2023/08/04 05:23:13;;;;;;;29.25;11.98;;;;;;;17.60;100.00;101074.75;5045622;28;20064;-71
2023/08/04 05:25:39;;;;;;;24.38;11.60;;;;;;;17.47;100.00;101073.28;5033636;28;20041;-71
2023/08/04 05:28:28;;;;;;;26.25;11.85;;;;;;;17.55;100.00;101077.00;5041331;28;20029;-71
2023/08/04 05:31:01;;;;;;;29.42;11.80;;;;;;;17.33;100.00;101077.22;5045538;28;20037;-71
2023/08/04 05:33:28;;;;;;;22.65;10.55;;;;;;;17.30;100.00;101077.47;5041140;28;20040;-71
2023/08/04 05:35:54;;;;;;;31.02;11.25;;;;;;;17.09;100.00;101082.91;5040162;28;20103;-71
2023/08/04 05:38:20;;;;;;;31.58;11.00;;;;;;;17.22;100.00;101080.84;5043249;28;20570;-71
2023/08/04 05:40:48;;;;;;;23.20;11.35;;;;;;;17.33;100.00;101088.00;5047751;28;20037;-71
2023/08/04 05:43:14;;;;;;;21.85;9.88;;;;;;;17.58;100.00;101083.97;5041010;28;20037;-72
2023/08/04 05:45:41;;;;;;;30.30;11.73;;;;;;;17.42;100.00;101091.69;5044574;28;20045;-71
2023/08/04 05:48:07;;;;;;;23.70;10.55;;;;;;;17.46;100.00;101095.84;5043451;28;20063;-71
2023/08/04 05:50:33;;;;;;;27.75;10.00;;;;;;;17.43;100.00;101098.81;5046353;28;20569;-71
2023/08/04 05:52:58;;;;;;;22.08;10.38;;;;;;;17.62;100.00;101098.91;5047256;28;20071;-71
2023/08/04 05:55:25;;;;;;;22.73;10.05;;;;;;;17.71;100.00;101103.44;5041267;28;20103;-71
2023/08/04 05:57:51;;;;;;;22.33;10.20;;;;;;;17.88;100.00;101107.41;5045681;28;20039;-70
2023/08/04 06:00:17;;;;;;;22.45;9.48;;;;;;;17.92;100.00;101108.78;5045297;28;20106;-71
2023/08/04 06:02:44;;;;;;;23.27;9.40;;;;;;;18.10;100.00;101107.16;5045061;28;20143;-71
2023/08/04 06:05:11;;;;;;;20.08;9.35;;;;;;;18.06;100.00;101107.56;5056331;28;20037;-71
2023/08/04 06:07:37;;;;;;;17.85;8.98;;;;;;;18.16;100.00;101108.44;5048349;28;20250;-71
2023/08/04 06:10:03;;;;;;;17.50;8.82;;;;;;;18.42;100.00;101113.28;5038068;28;20935;-71
2023/08/04 06:12:28;;;;;;;20.65;8.13;;;;;;;18.61;100.00;101124.94;5050555;28;20049;-71
2023/08/04 06:14:55;;;;;;;21.98;8.35;;;;;;;18.69;100.00;101120.72;5049055;28;20163;-71
2023/08/04 06:17:20;;;;;;;21.17;9.48;;;;;;;18.93;100.00;101117.59;5037130;28;20029;-71
2023/08/04 06:19:46;;;;;;;18.65;8.52;;;;;;;18.97;100.00;101117.13;5044170;28;20061;-71
2023/08/04 06:22:13;;;;;;;15.93;8.57;;;;;;;18.81;100.00;101122.28;5047471;28;20033;-71
2023/08/04 06:24:39;;;;;;;16.77;8.63;;;;;;;18.91;100.00;101131.22;5048369;28;20040;-71
2023/08/04 06:27:05;;;;;;;19.58;8.30;;;;;;;18.93;100.00;101115.72;5049550;28;20037;-71
2023/08/04 06:29:31;;;;;;;14.55;7.10;;;;;;;19.11;100.00;101118.53;5049098;28;20068;-71
2023/08/04 06:31:57;;;;;;;15.82;7.40;;;;;;;19.12;100.00;101121.06;5045137;28;20451;-71
2023/08/04 06:34:23;;;;;;;16.42;6.72;;;;;;;19.19;100.00;101125.91;5050189;28;20115;-71
2023/08/04 06:36:48;;;;;;;18.42;6.93;;;;;;;19.41;100.00;101122.84;5049405;28;20033;-71
2023/08/04 06:39:14;;;;;;;17.20;6.40;;;;;;;19.65;100.00;101130.47;5049302;28;20044;-71
2023/08/04 06:41:41;;;;;;;13.23;6.15;;;;;;;19.66;100.00;101129.47;5048900;28;20136;-71
2023/08/04 06:44:06;;;;;;;14.80;5.72;;;;;;;19.61;100.00;101127.22;5047349;28;20048;-71
2023/08/04 06:46:32;;;;;;;10.55;6.07;;;;;;;19.54;100.00;101134.19;5049514;28;20099;-71
2023/08/04 06:48:57;;;;;;;13.20;6.60;;;;;;;19.43;100.00;101134.41;5049767;28;20028;-71
2023/08/04 06:51:23;;;;;;;14.75;6.82;;;;;;;19.61;100.00;101129.06;5049309;28;20037;-71
2023/08/04 06:53:48;;;;;;;13.70;5.88;;;;;;;19.63;100.00;101129.78;5028602;28;20044;-71
2023/08/04 06:56:18;;;;;;;9.35;5.88;;;;;;;19.88;100.00;101134.50;5044561;28;20033;-71
2023/08/04 06:58:43;;;;;;;14.25;5.95;;;;;;;20.10;100.00;101138.66;5049722;28;20112;-71
2023/08/04 07:01:10;;;;;;;10.52;5.28;;;;;;;20.18;100.00;101132.47;5047237;28;20041;-71
2023/08/04 07:03:35;;;;;;;11.70;5.45;;;;;;;20.12;100.00;101136.63;5024464;28;20150;-71
2023/08/04 07:06:01;;;;;;;7.10;5.10;;;;;;;20.50;100.00;101140.13;5043374;28;20494;-71
2023/08/04 07:08:27;;;;;;;11.18;4.97;;;;;;;20.51;100.00;101140.97;5052343;28;20059;-71
2023/08/04 07:10:53;;;;;;;8.57;4.35;;;;;;;20.55;100.00;101145.09;5048442;28;20719;-71
2023/08/04 07:13:18;;;;;;;8.95;4.35;;;;;;;20.59;100.00;101152.75;5044677;28;20107;-71
2023/08/04 07:15:57;;;;;;;9.10;4.75;;;;;;;20.80;100.00;101154.28;5057142;28;20033;-71
2023/08/04 07:18:23;;;;;;;12.32;4.93;;;;;;;20.90;100.00;101152.34;5048953;28;20114;-71
2023/08/04 07:20:49;;;;;;;18.45;4.28;;;;;;;20.80;100.00;101157.00;5048778;28;20854;-72
2023/08/04 07:23:15;;;;;;;7.97;4.70;;;;;;;20.63;100.00;101154.16;5062198;28;20482;-71
2023/08/04 07:25:41;;;;;;;7.30;4.75;;;;;;;20.59;100.00;101154.63;5048430;28;20037;-71
2023/08/04 07:28:06;;;;;;;14.48;5.20;;;;;;;20.58;100.00;101155.59;5051854;28;20041;-71
2023/08/04 07:30:32;;;;;;;14.57;4.43;;;;;;;20.67;100.00;101157.38;5047366;28;20045;-70
2023/08/04 07:32:58;;;;;;;10.63;4.95;;;;;;;21.01;100.00;101153.94;5043984;28;20148;-71
2023/08/04 07:35:24;;;;;;;12.80;4.80;;;;;;;21.14;100.00;101152.53;5047998;28;20037;-70
2023/08/04 07:37:50;;;;;;;11.90;5.40;;;;;;;21.24;100.00;101157.88;5050820;28;20033;-71
2023/08/04 07:40:16;;;;;;;12.13;4.95;;;;;;;21.48;100.00;101157.19;5050301;28;20047;-71
2023/08/04 07:42:42;;;;;;;17.98;5.30;;;;;;;21.54;100.00;101162.00;5046064;28;20043;-70
2023/08/04 07:45:08;;;;;;;11.18;4.63;;;;;;;21.79;100.00;101168.41;5035466;28;20042;-71
2023/08/04 07:47:34;;;;;;;10.57;5.07;;;;;;;22.01;100.00;101161.53;5059121;28;20118;-71
2023/08/04 07:50:00;;;;;;;18.60;5.03;;;;;;;22.15;100.00;101163.66;5057397;28;20041;-70
2023/08/04 07:52:26;;;;;;;10.27;5.00;;;;;;;22.13;100.00;101170.25;5063236;28;20041;-71
2023/08/04 07:54:52;;;;;;;11.95;5.10;;;;;;;22.15;100.00;101165.53;5052314;28;20061;-71
2023/08/04 07:57:18;;;;;;;20.65;5.47;;;;;;;22.53;100.00;101164.06;5057785;28;20033;-71
2023/08/04 07:59:44;;;;;;;13.38;6.13;;;;;;;22.32;99.09;101166.41;5041233;28;20554;-70
2023/08/04 08:02:09;;;;;;;10.38;4.00;;;;;;;21.85;99.77;101167.75;5050378;28;20057;-70
2023/08/04 08:04:35;;;;;;;10.02;4.60;;;;;;;21.43;100.00;101168.50;5054666;28;20076;-71
2023/08/04 08:07:00;;;;;;;14.52;5.22;;;;;;;21.37;100.00;101173.75;5053131;28;20542;-71
2023/08/04 08:09:26;;;;;;;17.23;5.10;;;;;;;21.18;100.00;101175.59;5071402;28;20114;-72
2023/08/04 08:11:52;;;;;;;17.42;5.65;;;;;;;21.23;100.00;101179.72;5064246;28;20025;-71
2023/08/04 08:14:17;;;;;;;14.43;4.90;;;;;;;21.03;100.00;101188.03;5060106;28;20039;-73
2023/08/04 08:16:43;;;;;;;17.60;4.65;;;;;;;21.14;100.00;101192.38;5065667;28;20088;-72
2023/08/04 08:19:09;;;;;;;15.90;4.93;;;;;;;21.34;100.00;101190.34;5090384;28;20037;-73
2023/08/04 08:21:35;;;;;;;9.18;4.05;;;;;;;21.32;100.00;101185.06;5063488;28;20033;-75
2023/08/04 08:24:02;;;;;;;16.88;4.68;;;;;;;21.52;100.00;101191.13;5067393;28;20037;-71
2023/08/04 08:26:28;;;;;;;15.07;4.88;;;;;;;21.89;100.00;101188.13;5059862;28;20052;-71
2023/08/04 08:28:54;;;;;;;14.82;8.90;;;;;;;22.15;100.00;101188.09;5048419;28;20331;-70
2023/08/04 08:31:19;;;;;;;9.98;4.80;;;;;;;22.70;100.00;101189.44;5043912;28;20120;-71
2023/08/04 08:33:45;;;;;;;11.70;4.55;;;;;;;22.36;98.96;101192.25;5049445;28;20029;-71
2023/08/04 08:36:10;;;;;;;12.90;3.97;;;;;;;22.18;99.42;101193.19;5027469;28;20792;-72
2023/08/04 08:38:36;;;;;;;9.25;4.03;;;;;;;22.13;100.00;101187.41;5049153;28;20080;-71
2023/08/04 08:41:02;;;;;;;13.25;4.70;;;;;;;21.62;100.00;101205.44;5053953;28;20033;-71
2023/08/04 08:43:28;;;;;;;8.95;4.10;;;;;;;20.35;100.00;101217.47;5041515;28;20029;-71
2023/08/04 08:45:55;;;;;;;9.35;3.90;;;;;;;19.26;100.00;101240.59;5046842;28;20041;-71
2023/08/04 08:48:21;;;;;;;6.68;3.72;;;;;;;19.13;100.00;101244.47;5043103;28;20116;-72
2023/08/04 08:50:56;;;;;;;6.15;3.80;;;;;;;18.97;100.00;101246.00;5072095;27;20135;-71
2023/08/04 08:53:25;;;;;;;10.43;4.70;;;;;;;18.99;100.00;101250.28;5047721;28;20037;-71
2023/08/04 08:55:51;;;;;;;6.40;3.28;;;;;;;18.82;100.00;101246.41;5045435;28;20041;-71
2023/08/04 08:58:18;;;;;;;6.72;2.90;;;;;;;18.87;100.00;101262.22;5047470;28;20036;-71
2023/08/04 09:00:44;;;;;;;6.35;2.67;;;;;;;19.25;100.00;101257.81;5080349;28;20040;-71
2023/08/04 09:03:10;;;;;;;5.45;2.58;;;;;;;19.69;100.00;101247.41;5041709;28;20045;-72
2023/08/04 09:05:36;;;;;;;2.50;2.20;;;;;;;19.84;100.00;101237.81;5042528;28;20033;-72
2023/08/04 09:08:06;;;;;;;2.50;1.67;;;;;;;19.55;100.00;101245.97;5048322;28;20033;-71
2023/08/04 09:10:34;;;;;;;2.20;2.00;;;;;;;19.90;100.00;101235.34;5080364;27;20065;-71
2023/08/04 09:13:01;;;;;;;3.13;1.80;;;;;;;20.07;100.00;101232.88;5039624;28;20084;-71
2023/08/04 09:15:34;;;;;;;2.05;1.70;;;;;;;20.71;100.00;101233.81;5045173;28;20033;-71
2023/08/04 09:18:00;;;;;;;4.30;1.98;;;;;;;21.00;100.00;101239.88;5041652;28;20232;-71
2023/08/04 09:20:28;;;;;;;3.00;2.10;;;;;;;21.09;100.00;101240.81;5046411;28;20106;-71
2023/08/04 09:22:54;;;;;;;3.53;2.17;;;;;;;21.36;100.00;101239.88;5044267;28;20091;-71
2023/08/04 09:25:20;;;;;;;3.53;2.58;;;;;;;22.17;100.00;101237.69;5078406;27;20052;-72
2023/08/04 09:27:49;;;;;;;2.88;2.30;;;;;;;23.03;96.35;101233.84;5043679;28;20046;-71
2023/08/04 09:30:18;;;;;;;3.58;2.28;;;;;;;23.87;90.21;101221.72;5044953;28;20038;-71
2023/08/04 09:32:46;;;;;;;1.88;1.60;;;;;;;23.78;87.82;101228.22;5047072;28;20037;-72
2023/08/04 09:35:13;;;;;;;4.18;2.17;;;;;;;23.66;82.42;101230.47;5045621;28;20090;-72
2023/08/04 09:37:40;;;;;;;2.88;1.80;;;;;;;23.31;79.74;101239.81;5024512;28;20041;-71
2023/08/04 09:40:14;;;;;;;3.20;2.00;;;;;;;23.19;82.55;101230.28;5041885;28;20029;-72
2023/08/04 09:42:42;;;;;;;4.55;2.05;;;;;;;23.02;82.82;101232.16;5040425;28;20049;-72
2023/08/04 09:45:13;;;;;;;4.75;2.00;;;;;;;22.75;83.89;101241.44;5048455;28;20099;-71
2023/08/04 09:47:38;;;;;;;5.05;2.47;;;;;;;22.82;87.53;101228.88;5058394;28;20041;-72
2023/08/04 09:50:09;;;;;;;2.92;2.30;;;;;;;23.12;90.67;101232.00;5047681;28;20407;-72
2023/08/04 09:52:36;;;;;;;3.28;1.75;;;;;;;23.20;84.40;101229.28;5056484;28;20064;-71
2023/08/04 09:55:02;;;;;;;3.33;2.10;;;;;;;23.22;85.67;101230.81;5042745;28;20033;-72
2023/08/04 09:57:29;;;;;;;2.53;2.33;;;;;;;23.26;87.63;101225.88;5037170;28;20597;-72
2023/08/04 09:59:56;;;;;;;4.50;2.22;;;;;;;23.28;89.57;101232.00;5047391;28;20144;-72
2023/08/04 10:02:22;;;;;;;5.15;2.00;;;;;;;23.81;84.19;101227.88;5047767;28;20146;-71
2023/08/04 10:04:51;;;;;;;5.05;2.10;;;;;;;24.37;82.09;101222.41;5055109;28;20064;-72
2023/08/04 10:07:18;;;;;;;3.40;1.90;;;;;;;24.79;78.06;101220.09;5048277;28;20040;-72
2023/08/04 10:09:47;;;;;;;3.72;1.90;;;;;;;24.71;82.98;101216.59;5047598;28;20353;-71
2023/08/04 10:12:15;;;;;;;2.15;1.67;;;;;;;24.62;76.24;101221.25;5046731;28;20037;-72
2023/08/04 10:14:41;;;;;;;2.63;2.20;;;;;;;24.28;76.63;101225.13;5047154;28;20045;-72
2023/08/04 10:17:07;;;;;;;4.60;1.90;;;;;;;24.36;79.86;101226.19;5047981;28;20793;-72
2023/08/04 10:19:34;;;;;;;3.38;2.10;;;;;;;24.51;82.48;101222.50;5047680;28;20033;-71
2023/08/04 10:22:05;;;;;;;2.83;2.03;;;;;;;24.58;80.27;101217.19;5047917;28;20029;-71
2023/08/04 10:24:34;;;;;;;3.42;1.80;;;;;;;24.13;75.67;101217.88;5046073;28;20041;-72
2023/08/04 10:27:04;;;;;;;3.38;1.70;;;;;;;23.75;80.19;101226.69;5044259;28;20200;-72
2023/08/04 10:29:32;;;;;;;6.53;2.20;;;;;;;23.71;77.31;101225.34;5042897;28;20072;-72
2023/08/04 10:31:58;;;;;;;4.70;1.80;;;;;;;24.16;79.34;101231.16;5037762;28;20151;-72
2023/08/04 10:34:37;;;;;;;7.53;2.05;;;;;;;23.59;84.42;101239.44;5042205;28;20057;-72
2023/08/04 10:37:11;;;;;;;6.75;2.22;;;;;;;23.63;78.42;101236.25;5059515;28;20037;-71
2023/08/04 10:40:01;;;;;;;3.20;1.70;;;;;;;23.50;78.76;101238.63;5048230;28;20901;-71
2023/08/04 10:42:30;;;;;;;3.15;1.40;;;;;;;23.49;81.33;101239.63;5035894;28;20065;-72
2023/08/04 10:45:05;;;;;;;2.47;1.30;;;;;;;24.02;79.83;101225.41;5041537;28;20045;-72
2023/08/04 10:47:40;;;;;;;2.03;1.50;;;;;;;23.98;79.17;101231.38;5045079;28;20041;-72
2023/08/04 10:50:07;;;;;;;4.15;1.70;;;;;;;23.95;77.86;101234.47;5047910;28;20040;-72
2023/08/04 10:52:34;;;;;;;3.90;1.45;;;;;;;23.93;75.75;101239.25;5046769;28;20107;-71
2023/08/04 10:55:01;;;;;;;2.95;1.83;;;;;;;23.75;74.09;101248.50;5043067;28;20030;-71
2023/08/04 10:57:31;;;;;;;13.05;2.38;;;;;;;24.21;73.04;101245.97;5046303;28;21213;-71
2023/08/04 10:59:58;;;;;;;3.03;1.90;;;;;;;24.09;70.79;101244.63;5046430;28;20029;-72
2023/08/04 11:02:24;;;;;;;5.10;1.60;;;;;;;24.22;72.33;101235.91;5047035;28;20033;-72
2023/08/04 11:04:52;;;;;;;2.05;1.50;;;;;;;24.28;74.18;101240.66;5047719;28;20084;-72
2023/08/04 11:07:19;;;;;;;4.75;1.95;;;;;;;23.90;71.63;101242.34;5047520;28;20585;-70
2023/08/04 11:09:46;;;;;;;10.68;2.65;;;;;;;23.74;75.20;101243.19;5049761;28;20033;-72